sensor_id;sensor_type;location;lat;lon;timestamp;pressure;altitude;pressure_sealevel;temperature;humidity
48200;BME280;33990;44.602;10.976;2023-03-16T00:02:19;101254.03;;;19.90;43.05
48200;BME280;33990;44.602;10.976;2023-03-16T00:04:46;101262.94;;;19.91;42.95
48200;BME280;33990;44.602;10.976;2023-03-16T00:07:14;101258.56;;;19.90;42.88
48200;BME280;33990;44.602;10.976;2023-03-16T00:09:41;101272.00;;;19.90;42.95
48200;BME280;33990;44.602;10.976;2023-03-16T00:12:15;101277.38;;;19.90;42.84
48200;BME280;33990;44.602;10.976;2023-03-16T00:14:45;101272.94;;;19.89;42.74
48200;BME280;33990;44.602;10.976;2023-03-16T00:17:14;101283.69;;;19.89;42.79
48200;BME280;33990;44.602;10.976;2023-03-16T00:19:50;101286.53;;;19.87;42.75
48200;BME280;33990;44.602;10.976;2023-03-16T00:22:23;101287.38;;;19.88;42.81
48200;BME280;33990;44.602;10.976;2023-03-16T00:24:50;101289.19;;;19.87;42.89
48200;BME280;33990;44.602;10.976;2023-03-16T00:27:19;101282.97;;;19.87;42.68
48200;BME280;33990;44.602;10.976;2023-03-16T00:29:50;101293.72;;;19.87;42.89
48200;BME280;33990;44.602;10.976;2023-03-16T00:32:25;101293.88;;;19.85;42.73
48200;BME280;33990;44.602;10.976;2023-03-16T00:34:53;101301.03;;;19.85;42.67
48200;BME280;33990;44.602;10.976;2023-03-16T00:37:22;101304.72;;;19.84;42.77
48200;BME280;33990;44.602;10.976;2023-03-16T00:39:51;101309.09;;;19.85;42.82
48200;BME280;33990;44.602;10.976;2023-03-16T00:42:25;101311.94;;;19.83;42.80
48200;BME280;33990;44.602;10.976;2023-03-16T00:44:56;101313.75;;;19.83;42.63
48200;BME280;33990;44.602;10.976;2023-03-16T00:47:30;101311.94;;;19.83;42.81
48200;BME280;33990;44.602;10.976;2023-03-16T00:50:02;101312.91;;;19.82;42.60
48200;BME280;33990;44.602;10.976;2023-03-16T00:52:36;101310.22;;;19.82;42.90
48200;BME280;33990;44.602;10.976;2023-03-16T00:55:03;101314.75;;;19.82;42.74
48200;BME280;33990;44.602;10.976;2023-03-16T00:57:31;101313.91;;;19.81;42.56
48200;BME280;33990;44.602;10.976;2023-03-16T00:59:59;101308.63;;;19.80;42.69
48200;BME280;33990;44.602;10.976;2023-03-16T01:02:28;101312.16;;;19.80;42.82
48200;BME280;33990;44.602;10.976;2023-03-16T01:04:55;101314.84;;;19.80;42.81
48200;BME280;33990;44.602;10.976;2023-03-16T01:07:24;101308.63;;;19.80;42.63
48200;BME280;33990;44.602;10.976;2023-03-16T01:09:52;101312.31;;;19.79;42.77
48200;BME280;33990;44.602;10.976;2023-03-16T01:12:19;101314.13;;;19.78;42.81
48200;BME280;33990;44.602;10.976;2023-03-16T01:14:46;101311.44;;;19.78;42.75
48200;BME280;33990;44.602;10.976;2023-03-16T01:17:16;101305.22;;;19.78;42.92
48200;BME280;33990;44.602;10.976;2023-03-16T01:19:44;101302.53;;;19.78;42.68
48200;BME280;33990;44.602;10.976;2023-03-16T01:22:13;101294.59;;;19.76;42.74
48200;BME280;33990;44.602;10.976;2023-03-16T01:24:41;101298.13;;;19.76;42.68
48200;BME280;33990;44.602;10.976;2023-03-16T01:27:11;101296.41;;;19.75;42.63
48200;BME280;33990;44.602;10.976;2023-03-16T01:29:40;101292.88;;;19.75;42.60
48200;BME280;33990;44.602;10.976;2023-03-16T01:32:10;101293.72;;;19.75;42.84
48200;BME280;33990;44.602;10.976;2023-03-16T01:34:38;101293.88;;;19.74;42.82
48200;BME280;33990;44.602;10.976;2023-03-16T01:37:06;101295.69;;;19.73;42.94
48200;BME280;33990;44.602;10.976;2023-03-16T01:39:48;101290.34;;;19.73;42.75
48200;BME280;33990;44.602;10.976;2023-03-16T01:42:16;101298.38;;;19.73;42.92
48200;BME280;33990;44.602;10.976;2023-03-16T01:47:17;101289.59;;;19.71;42.67
48200;BME280;33990;44.602;10.976;2023-03-16T01:49:44;101286.03;;;19.71;42.80
48200;BME280;33990;44.602;10.976;2023-03-16T01:52:18;101285.19;;;19.70;42.88
48200;BME280;33990;44.602;10.976;2023-03-16T01:54:48;101296.78;;;19.71;42.85
48200;BME280;33990;44.602;10.976;2023-03-16T01:57:19;101281.66;;;19.70;42.73
48200;BME280;33990;44.602;10.976;2023-03-16T02:03:03;101281.75;;;19.68;42.79
48200;BME280;33990;44.602;10.976;2023-03-16T02:05:56;101291.66;;;19.68;42.57
48200;BME280;33990;44.602;10.976;2023-03-16T02:08:26;101288.97;;;19.68;42.84
48200;BME280;33990;44.602;10.976;2023-03-16T02:10:55;101289.09;;;19.66;42.77
48200;BME280;33990;44.602;10.976;2023-03-16T02:13:31;101286.41;;;19.66;42.77
48200;BME280;33990;44.602;10.976;2023-03-16T02:16:06;101283.72;;;19.66;42.66
48200;BME280;33990;44.602;10.976;2023-03-16T02:18:35;101278.38;;;19.66;42.75
48200;BME280;33990;44.602;10.976;2023-03-16T02:21:05;101281.03;;;19.66;42.68
48200;BME280;33990;44.602;10.976;2023-03-16T02:23:36;101273.13;;;19.65;42.82
48200;BME280;33990;44.602;10.976;2023-03-16T02:31:31;101282.13;;;19.64;42.94
48200;BME280;33990;44.602;10.976;2023-03-16T02:33:59;101274.94;;;19.64;42.67
48200;BME280;33990;44.602;10.976;2023-03-16T02:36:28;101283.13;;;19.63;42.78
48200;BME280;33990;44.602;10.976;2023-03-16T02:38:56;101280.44;;;19.63;42.79
48200;BME280;33990;44.602;10.976;2023-03-16T02:41:24;101276.03;;;19.62;42.91
48200;BME280;33990;44.602;10.976;2023-03-16T02:44:11;101280.44;;;19.63;43.06
48200;BME280;33990;44.602;10.976;2023-03-16T02:46:44;101282.28;;;19.62;42.83
48200;BME280;33990;44.602;10.976;2023-03-16T02:49:26;101269.81;;;19.61;42.39
48200;BME280;33990;44.602;10.976;2023-03-16T02:51:56;101280.56;;;19.61;42.70
48200;BME280;33990;44.602;10.976;2023-03-16T02:54:23;101268.06;;;19.60;42.57
48200;BME280;33990;44.602;10.976;2023-03-16T02:56:51;101268.94;;;19.61;42.53
48200;BME280;33990;44.602;10.976;2023-03-16T02:59:20;101270.75;;;19.60;42.84
48200;BME280;33990;44.602;10.976;2023-03-16T03:01:48;101266.34;;;19.59;42.72
48200;BME280;33990;44.602;10.976;2023-03-16T03:04:16;101271.72;;;19.59;42.94
48200;BME280;33990;44.602;10.976;2023-03-16T03:06:43;101263.69;;;19.59;42.80
48200;BME280;33990;44.602;10.976;2023-03-16T03:09:11;101254.63;;;19.60;43.12
48200;BME280;33990;44.602;10.976;2023-03-16T03:11:39;101263.56;;;19.61;42.71
48200;BME280;33990;44.602;10.976;2023-03-16T03:14:07;101256.47;;;19.60;42.59
48200;BME280;33990;44.602;10.976;2023-03-16T03:16:37;101261.00;;;19.59;42.85
48200;BME280;33990;44.602;10.976;2023-03-16T03:19:04;101262.81;;;19.59;42.68
48200;BME280;33990;44.602;10.976;2023-03-16T03:21:35;101276.25;;;19.59;42.59
48200;BME280;33990;44.602;10.976;2023-03-16T03:24:03;101272.72;;;19.58;42.55
48200;BME280;33990;44.602;10.976;2023-03-16T03:26:33;101275.50;;;19.57;42.64
48200;BME280;33990;44.602;10.976;2023-03-16T03:29:03;101277.34;;;19.56;42.66
48200;BME280;33990;44.602;10.976;2023-03-16T03:31:32;101274.66;;;19.56;42.44
48200;BME280;33990;44.602;10.976;2023-03-16T03:34:01;101287.22;;;19.56;42.30
48200;BME280;33990;44.602;10.976;2023-03-16T03:36:34;101287.38;;;19.54;42.69
48200;BME280;33990;44.602;10.976;2023-03-16T03:39:03;101282.84;;;19.55;42.55
48200;BME280;33990;44.602;10.976;2023-03-16T03:41:32;101295.41;;;19.54;42.58
48200;BME280;33990;44.602;10.976;2023-03-16T03:44:03;101305.31;;;19.54;42.45
48200;BME280;33990;44.602;10.976;2023-03-16T03:46:32;101314.22;;;19.54;42.58
48200;BME280;33990;44.602;10.976;2023-03-16T03:49:00;101306.16;;;19.54;42.44
48200;BME280;33990;44.602;10.976;2023-03-16T03:51:32;101307.25;;;19.51;42.57
48200;BME280;33990;44.602;10.976;2023-03-16T03:54:12;101308.09;;;19.52;42.40
48200;BME280;33990;44.602;10.976;2023-03-16T03:56:51;101313.47;;;19.52;42.47
48200;BME280;33990;44.602;10.976;2023-03-16T03:59:19;101324.34;;;19.50;42.51
48200;BME280;33990;44.602;10.976;2023-03-16T04:02:16;101331.56;;;19.50;42.48
48200;BME280;33990;44.602;10.976;2023-03-16T04:04:50;101334.09;;;19.51;42.56
48200;BME280;33990;44.602;10.976;2023-03-16T04:07:17;101336.94;;;19.50;42.48
48200;BME280;33990;44.602;10.976;2023-03-16T04:09:45;101342.28;;;19.50;42.33
48200;BME280;33990;44.602;10.976;2023-03-16T04:12:30;101351.34;;;19.49;42.20
48200;BME280;33990;44.602;10.976;2023-03-16T04:14:57;101349.59;;;19.48;42.43
48200;BME280;33990;44.602;10.976;2023-03-16T04:17:30;101354.03;;;19.49;42.73
48200;BME280;33990;44.602;10.976;2023-03-16T04:19:58;101352.28;;;19.48;42.41
48200;BME280;33990;44.602;10.976;2023-03-16T04:22:26;101358.63;;;19.47;42.47
48200;BME280;33990;44.602;10.976;2023-03-16T04:24:56;101359.50;;;19.47;42.64
48200;BME280;33990;44.602;10.976;2023-03-16T04:27:26;101359.50;;;19.47;42.75
48200;BME280;33990;44.602;10.976;2023-03-16T04:29:53;101372.81;;;19.49;42.93
48200;BME280;33990;44.602;10.976;2023-03-16T04:32:25;101377.44;;;19.47;43.01
48200;BME280;33990;44.602;10.976;2023-03-16T04:34:54;101376.59;;;19.46;42.92
48200;BME280;33990;44.602;10.976;2023-03-16T04:37:31;101380.97;;;19.47;43.01
48200;BME280;33990;44.602;10.976;2023-03-16T04:40:00;101379.28;;;19.46;43.13
48200;BME280;33990;44.602;10.976;2023-03-16T04:42:37;101386.34;;;19.47;42.94
48200;BME280;33990;44.602;10.976;2023-03-16T04:45:05;101383.78;;;19.46;42.87
48200;BME280;33990;44.602;10.976;2023-03-16T04:47:34;101394.53;;;19.46;42.20
48200;BME280;33990;44.602;10.976;2023-03-16T04:50:04;101395.38;;;19.46;42.67
48200;BME280;33990;44.602;10.976;2023-03-16T04:52:32;101399.91;;;19.46;42.60
48200;BME280;33990;44.602;10.976;2023-03-16T04:55:01;101392.81;;;19.45;42.82
48200;BME280;33990;44.602;10.976;2023-03-16T04:57:29;101391.94;;;19.44;42.89
48200;BME280;33990;44.602;10.976;2023-03-16T04:59:56;101394.63;;;19.44;42.79
48200;BME280;33990;44.602;10.976;2023-03-16T05:02:32;101388.41;;;19.44;42.51
48200;BME280;33990;44.602;10.976;2023-03-16T05:05:02;101399.16;;;19.44;42.61
48200;BME280;33990;44.602;10.976;2023-03-16T05:07:30;101391.09;;;19.44;42.41
48200;BME280;33990;44.602;10.976;2023-03-16T05:09:58;101403.66;;;19.43;42.40
48200;BME280;33990;44.602;10.976;2023-03-16T05:12:26;101399.28;;;19.42;42.59
48200;BME280;33990;44.602;10.976;2023-03-16T05:14:58;101395.75;;;19.42;42.47
48200;BME280;33990;44.602;10.976;2023-03-16T05:17:46;101394.91;;;19.41;42.69
48200;BME280;33990;44.602;10.976;2023-03-16T05:20:14;101400.25;;;19.41;42.68
48200;BME280;33990;44.602;10.976;2023-03-16T05:22:48;101400.34;;;19.40;42.53
48200;BME280;33990;44.602;10.976;2023-03-16T05:25:28;101394.13;;;19.39;42.47
48200;BME280;33990;44.602;10.976;2023-03-16T05:27:58;101400.34;;;19.40;42.24
48200;BME280;33990;44.602;10.976;2023-03-16T05:30:48;101393.41;;;19.37;42.51
48200;BME280;33990;44.602;10.976;2023-03-16T05:33:20;101406.72;;;19.39;42.25
48200;BME280;33990;44.602;10.976;2023-03-16T05:35:52;101406.00;;;19.37;42.47
48200;BME280;33990;44.602;10.976;2023-03-16T05:38:20;101408.53;;;19.38;42.31
48200;BME280;33990;44.602;10.976;2023-03-16T05:40:48;101406.94;;;19.36;42.05
48200;BME280;33990;44.602;10.976;2023-03-16T05:43:35;101407.06;;;19.34;42.16
48200;BME280;33990;44.602;10.976;2023-03-16T05:46:02;101418.66;;;19.35;42.28
48200;BME280;33990;44.602;10.976;2023-03-16T05:48:31;101413.28;;;19.35;41.99
48200;BME280;33990;44.602;10.976;2023-03-16T05:50:59;101413.28;;;19.35;41.99
48200;BME280;33990;44.602;10.976;2023-03-16T05:53:29;101420.63;;;19.33;42.16
48200;BME280;33990;44.602;10.976;2023-03-16T05:56:04;101426.84;;;19.33;41.96
48200;BME280;33990;44.602;10.976;2023-03-16T05:58:34;101430.47;;;19.32;41.89
48200;BME280;33990;44.602;10.976;2023-03-16T06:01:05;101427.78;;;19.32;42.12
48200;BME280;33990;44.602;10.976;2023-03-16T06:03:35;101435.00;;;19.32;42.21
48200;BME280;33990;44.602;10.976;2023-03-16T06:06:04;101433.16;;;19.32;42.19
48200;BME280;33990;44.602;10.976;2023-03-16T06:08:38;101444.88;;;19.31;41.87
48200;BME280;33990;44.602;10.976;2023-03-16T06:11:10;101452.94;;;19.31;42.01
48200;BME280;33990;44.602;10.976;2023-03-16T06:13:38;101447.69;;;19.30;42.01
48200;BME280;33990;44.602;10.976;2023-03-16T06:16:07;101454.91;;;19.29;41.91
48200;BME280;33990;44.602;10.976;2023-03-16T06:18:37;101451.22;;;19.30;41.90
48200;BME280;33990;44.602;10.976;2023-03-16T06:21:05;101455.75;;;19.30;41.88
48200;BME280;33990;44.602;10.976;2023-03-16T06:23:33;101451.22;;;19.30;41.48
48200;BME280;33990;44.602;10.976;2023-03-16T06:26:02;101457.59;;;19.29;41.66
48200;BME280;33990;44.602;10.976;2023-03-16T06:28:32;101463.81;;;19.30;41.48
48200;BME280;33990;44.602;10.976;2023-03-16T06:30:59;101470.88;;;19.31;41.61
48200;BME280;33990;44.602;10.976;2023-03-16T06:33:31;101471.84;;;19.30;41.46
48200;BME280;33990;44.602;10.976;2023-03-16T06:35:58;101464.66;;;19.30;41.46
48200;BME280;33990;44.602;10.976;2023-03-16T06:38:31;101470.03;;;19.30;41.43
48200;BME280;33990;44.602;10.976;2023-03-16T06:41:06;101483.44;;;19.30;41.59
48200;BME280;33990;44.602;10.976;2023-03-16T06:43:34;101486.13;;;19.30;41.41
48200;BME280;33990;44.602;10.976;2023-03-16T06:46:02;101482.59;;;19.30;41.25
48200;BME280;33990;44.602;10.976;2023-03-16T06:48:30;101486.13;;;19.30;41.43
48200;BME280;33990;44.602;10.976;2023-03-16T06:50:57;101494.19;;;19.30;41.26
48200;BME280;33990;44.602;10.976;2023-03-16T06:53:27;101496.03;;;19.30;41.38
48200;BME280;33990;44.602;10.976;2023-03-16T06:55:55;101502.25;;;19.30;41.33
48200;BME280;33990;44.602;10.976;2023-03-16T06:58:25;101502.25;;;19.30;41.08
48200;BME280;33990;44.602;10.976;2023-03-16T07:00:52;101501.38;;;19.30;41.37
48200;BME280;33990;44.602;10.976;2023-03-16T07:03:20;101511.16;;;19.31;41.01
48200;BME280;33990;44.602;10.976;2023-03-16T07:05:53;101508.59;;;19.29;41.38
48200;BME280;33990;44.602;10.976;2023-03-16T07:08:22;101511.28;;;19.29;41.17
48200;BME280;33990;44.602;10.976;2023-03-16T07:10:50;101520.19;;;19.30;41.08
48200;BME280;33990;44.602;10.976;2023-03-16T07:13:18;101527.38;;;19.29;41.16
48200;BME280;33990;44.602;10.976;2023-03-16T07:15:49;101518.47;;;19.29;41.02
48200;BME280;33990;44.602;10.976;2023-03-16T07:18:19;101529.22;;;19.29;40.83
48200;BME280;33990;44.602;10.976;2023-03-16T07:20:47;101532.75;;;19.29;41.01
48200;BME280;33990;44.602;10.976;2023-03-16T07:23:14;101538.13;;;19.29;40.69
48200;BME280;33990;44.602;10.976;2023-03-16T07:25:43;101541.66;;;19.30;40.63
48200;BME280;33990;44.602;10.976;2023-03-16T07:28:11;101552.41;;;19.30;40.81
48200;BME280;33990;44.602;10.976;2023-03-16T07:30:41;101553.38;;;19.29;40.61
48200;BME280;33990;44.602;10.976;2023-03-16T07:33:33;101556.91;;;19.29;40.56
48200;BME280;33990;44.602;10.976;2023-03-16T07:36:04;101554.22;;;19.29;40.64
48200;BME280;33990;44.602;10.976;2023-03-16T07:38:36;101557.75;;;19.30;40.54
48200;BME280;33990;44.602;10.976;2023-03-16T07:41:04;101555.09;;;19.30;40.71
48200;BME280;33990;44.602;10.976;2023-03-16T07:43:33;101561.44;;;19.29;40.61
48200;BME280;33990;44.602;10.976;2023-03-16T07:46:00;101565.81;;;19.30;40.56
48200;BME280;33990;44.602;10.976;2023-03-16T07:48:28;101566.81;;;19.29;40.71
48200;BME280;33990;44.602;10.976;2023-03-16T07:51:00;101569.47;;;19.29;40.66
48200;BME280;33990;44.602;10.976;2023-03-16T07:53:29;101576.66;;;19.28;40.73
48200;BME280;33990;44.602;10.976;2023-03-16T07:56:23;101586.44;;;19.29;40.76
48200;BME280;33990;44.602;10.976;2023-03-16T07:58:55;101579.34;;;19.28;40.73
48200;BME280;33990;44.602;10.976;2023-03-16T08:01:22;101585.59;;;19.29;40.65
48200;BME280;33990;44.602;10.976;2023-03-16T08:03:50;101580.22;;;19.29;40.76
48200;BME280;33990;44.602;10.976;2023-03-16T08:06:18;101580.22;;;19.29;41.24
48200;BME280;33990;44.602;10.976;2023-03-16T08:08:46;101582.78;;;19.30;40.85
48200;BME280;33990;44.602;10.976;2023-03-16T08:11:21;101580.81;;;19.32;40.80
48200;BME280;33990;44.602;10.976;2023-03-16T08:13:57;101590.50;;;19.35;40.92
48200;BME280;33990;44.602;10.976;2023-03-16T08:16:38;101588.56;;;19.37;41.12
48200;BME280;33990;44.602;10.976;2023-03-16T08:19:06;101593.81;;;19.38;41.35
48200;BME280;33990;44.602;10.976;2023-03-16T08:21:34;101594.53;;;19.40;41.87
48200;BME280;33990;44.602;10.976;2023-03-16T08:24:22;101601.53;;;19.43;41.45
48200;BME280;33990;44.602;10.976;2023-03-16T08:26:49;101609.44;;;19.44;41.86
48200;BME280;33990;44.602;10.976;2023-03-16T08:29:17;101603.13;;;19.45;41.57
48200;BME280;33990;44.602;10.976;2023-03-16T08:31:45;101603.13;;;19.45;41.33
48200;BME280;33990;44.602;10.976;2023-03-16T08:34:22;101609.34;;;19.46;41.29
48200;BME280;33990;44.602;10.976;2023-03-16T08:36:49;101607.66;;;19.45;41.27
48200;BME280;33990;44.602;10.976;2023-03-16T08:39:17;101600.44;;;19.45;40.12
48200;BME280;33990;44.602;10.976;2023-03-16T08:41:46;101603.00;;;19.47;41.21
48200;BME280;33990;44.602;10.976;2023-03-16T08:44:36;101612.78;;;19.48;39.71
48200;BME280;33990;44.602;10.976;2023-03-16T08:47:04;101608.25;;;19.48;40.54
48200;BME280;33990;44.602;10.976;2023-03-16T08:49:33;101613.53;;;19.50;41.11
48200;BME280;33990;44.602;10.976;2023-03-16T08:52:08;101617.91;;;19.51;40.56
48200;BME280;33990;44.602;10.976;2023-03-16T08:54:40;101617.06;;;19.50;40.47
48200;BME280;33990;44.602;10.976;2023-03-16T08:57:22;101612.56;;;19.51;40.66
48200;BME280;33990;44.602;10.976;2023-03-16T08:59:49;101608.88;;;19.52;40.34
48200;BME280;33990;44.602;10.976;2023-03-16T09:02:17;101616.84;;;19.54;40.32
48200;BME280;33990;44.602;10.976;2023-03-16T09:04:44;101625.75;;;19.54;40.68
48200;BME280;33990;44.602;10.976;2023-03-16T09:07:12;101620.38;;;19.54;40.29
48200;BME280;33990;44.602;10.976;2023-03-16T09:09:39;101621.25;;;19.55;40.35
48200;BME280;33990;44.602;10.976;2023-03-16T09:12:07;101619.41;;;19.55;40.59
48200;BME280;33990;44.602;10.976;2023-03-16T09:14:34;101620.25;;;19.56;39.89
48200;BME280;33990;44.602;10.976;2023-03-16T09:17:05;101617.56;;;19.56;39.04
48200;BME280;33990;44.602;10.976;2023-03-16T09:19:38;101616.59;;;19.57;40.46
48200;BME280;33990;44.602;10.976;2023-03-16T09:22:25;101619.28;;;19.57;39.04
48200;BME280;33990;44.602;10.976;2023-03-16T09:24:52;101621.13;;;19.56;38.25
48200;BME280;33990;44.602;10.976;2023-03-16T09:27:19;101625.53;;;19.57;37.66
48200;BME280;33990;44.602;10.976;2023-03-16T09:29:47;101624.56;;;19.58;37.69
48200;BME280;33990;44.602;10.976;2023-03-16T09:32:15;101621.97;;;19.57;37.30
48200;BME280;33990;44.602;10.976;2023-03-16T09:34:42;101622.84;;;19.57;37.35
48200;BME280;33990;44.602;10.976;2023-03-16T09:37:10;101632.63;;;19.58;37.21
48200;BME280;33990;44.602;10.976;2023-03-16T09:39:38;101629.94;;;19.58;36.79
48200;BME280;33990;44.602;10.976;2023-03-16T09:42:15;101630.91;;;19.57;35.85
48200;BME280;33990;44.602;10.976;2023-03-16T09:47:31;101632.63;;;19.58;34.71
48200;BME280;33990;44.602;10.976;2023-03-16T09:50:04;101638.00;;;19.58;34.51
48200;BME280;33990;44.602;10.976;2023-03-16T09:55:32;101641.66;;;19.57;34.05
48200;BME280;33990;44.602;10.976;2023-03-16T09:58:04;101642.50;;;19.58;33.97
48200;BME280;33990;44.602;10.976;2023-03-16T10:00:40;101644.22;;;19.59;35.46
48200;BME280;33990;44.602;10.976;2023-03-16T10:06:02;101644.09;;;19.60;37.62
48200;BME280;33990;44.602;10.976;2023-03-16T10:08:36;101643.16;;;19.61;37.74
48200;BME280;33990;44.602;10.976;2023-03-16T10:16:55;101648.19;;;19.66;38.84
48200;BME280;33990;44.602;10.976;2023-03-16T10:19:44;101651.75;;;19.66;38.70
48200;BME280;33990;44.602;10.976;2023-03-16T10:22:25;101646.38;;;19.66;38.79
48200;BME280;33990;44.602;10.976;2023-03-16T10:27:40;101646.50;;;19.65;38.99
48200;BME280;33990;44.602;10.976;2023-03-16T10:32:48;101642.81;;;19.66;38.87
48200;BME280;33990;44.602;10.976;2023-03-16T10:38:07;101646.38;;;19.66;38.86
48200;BME280;33990;44.602;10.976;2023-03-16T10:40:37;101649.06;;;19.66;38.81
48200;BME280;33990;44.602;10.976;2023-03-16T10:43:10;101646.38;;;19.66;38.97
48200;BME280;33990;44.602;10.976;2023-03-16T10:45:41;101646.25;;;19.68;38.76
48200;BME280;33990;44.602;10.976;2023-03-16T10:48:14;101642.69;;;19.67;38.65
48200;BME280;33990;44.602;10.976;2023-03-16T10:50:42;101648.06;;;19.67;38.59
48200;BME280;33990;44.602;10.976;2023-03-16T10:53:19;101648.94;;;19.68;38.67
48200;BME280;33990;44.602;10.976;2023-03-16T10:55:48;101644.41;;;19.68;38.86
48200;BME280;33990;44.602;10.976;2023-03-16T10:58:28;101650.75;;;19.67;38.92
48200;BME280;33990;44.602;10.976;2023-03-16T11:00:57;101640.00;;;19.67;38.80
48200;BME280;33990;44.602;10.976;2023-03-16T11:03:27;101647.09;;;19.68;38.81
48200;BME280;33990;44.602;10.976;2023-03-16T11:05:57;101641.72;;;19.68;38.47
48200;BME280;33990;44.602;10.976;2023-03-16T11:08:27;101638.19;;;19.68;38.36
48200;BME280;33990;44.602;10.976;2023-03-16T11:10:59;101646.25;;;19.68;38.35
48200;BME280;33990;44.602;10.976;2023-03-16T11:13:34;101650.75;;;19.67;38.53
48200;BME280;33990;44.602;10.976;2023-03-16T11:18:47;101641.84;;;19.67;38.38
48200;BME280;33990;44.602;10.976;2023-03-16T11:21:21;101642.69;;;19.67;38.37
48200;BME280;33990;44.602;10.976;2023-03-16T11:23:55;101649.06;;;19.66;38.50
48200;BME280;33990;44.602;10.976;2023-03-16T11:26:33;101650.75;;;19.67;38.52
48200;BME280;33990;44.602;10.976;2023-03-16T11:29:08;101640.88;;;19.68;38.47
48200;BME280;33990;44.602;10.976;2023-03-16T11:31:44;101635.63;;;19.66;38.48
48200;BME280;33990;44.602;10.976;2023-03-16T11:34:17;101633.78;;;19.67;38.42
48200;BME280;33990;44.602;10.976;2023-03-16T11:36:49;101632.94;;;19.66;38.21
48200;BME280;33990;44.602;10.976;2023-03-16T11:42:03;101625.28;;;19.60;35.66
48200;BME280;33990;44.602;10.976;2023-03-16T11:44:37;101628.22;;;19.57;40.43
48200;BME280;33990;44.602;10.976;2023-03-16T11:47:27;101627.59;;;19.54;43.43
48200;BME280;33990;44.602;10.976;2023-03-16T11:50:28;101626.94;;;19.50;45.33
48200;BME280;33990;44.602;10.976;2023-03-16T12:04:03;101598.84;;;19.43;48.79
48200;BME280;33990;44.602;10.976;2023-03-16T12:12:35;101591.47;;;19.34;40.47
48200;BME280;33990;44.602;10.976;2023-03-16T12:17:34;101587.00;;;19.21;36.98
48200;BME280;33990;44.602;10.976;2023-03-16T12:20:20;101574.00;;;19.15;39.09
48200;BME280;33990;44.602;10.976;2023-03-16T12:22:57;101580.38;;;19.14;42.33
48200;BME280;33990;44.602;10.976;2023-03-16T12:25:29;101569.75;;;19.13;45.01
48200;BME280;33990;44.602;10.976;2023-03-16T12:28:00;101569.75;;;19.13;45.51
48200;BME280;33990;44.602;10.976;2023-03-16T12:31:04;101564.38;;;19.13;47.20
48200;BME280;33990;44.602;10.976;2023-03-16T12:47:20;101568.78;;;19.14;49.95
48200;BME280;33990;44.602;10.976;2023-03-16T12:49:53;101559.75;;;19.15;50.05
48200;BME280;33990;44.602;10.976;2023-03-16T12:52:22;101569.63;;;19.14;49.93
48200;BME280;33990;44.602;10.976;2023-03-16T12:54:52;101566.94;;;19.14;45.81
48200;BME280;33990;44.602;10.976;2023-03-16T12:57:23;101566.22;;;19.12;40.88
48200;BME280;33990;44.602;10.976;2023-03-16T12:59:57;101554.72;;;19.10;40.28
48200;BME280;33990;44.602;10.976;2023-03-16T13:02:31;101551.31;;;19.08;40.20
48200;BME280;33990;44.602;10.976;2023-03-16T13:05:07;101559.22;;;19.10;45.69
48200;BME280;33990;44.602;10.976;2023-03-16T13:07:36;101550.22;;;19.11;47.03
48200;BME280;33990;44.602;10.976;2023-03-16T13:10:06;101548.28;;;19.13;47.68
48200;BME280;33990;44.602;10.976;2023-03-16T13:12:39;101547.31;;;19.14;48.22
48200;BME280;33990;44.602;10.976;2023-03-16T13:18:01;101541.72;;;19.17;48.57
48200;BME280;33990;44.602;10.976;2023-03-16T13:20:31;101546.09;;;19.18;48.98
48200;BME280;33990;44.602;10.976;2023-03-16T13:28:49;101531.50;;;19.22;49.35
48200;BME280;33990;44.602;10.976;2023-03-16T13:33:53;101537.94;;;19.19;43.55
48200;BME280;33990;44.602;10.976;2023-03-16T13:36:25;101539.97;;;19.16;39.42
48200;BME280;33990;44.602;10.976;2023-03-16T13:39:01;101535.81;;;19.12;38.87
48200;BME280;33990;44.602;10.976;2023-03-16T13:41:30;101536.91;;;19.09;41.25
48200;BME280;33990;44.602;10.976;2023-03-16T13:43:57;101542.28;;;19.09;44.08
48200;BME280;33990;44.602;10.976;2023-03-16T13:46:29;101540.44;;;19.10;45.58
48200;BME280;33990;44.602;10.976;2023-03-16T13:48:58;101531.31;;;19.12;46.36
48200;BME280;33990;44.602;10.976;2023-03-16T13:51:27;101534.88;;;19.13;46.10
48200;BME280;33990;44.602;10.976;2023-03-16T13:53:57;101535.59;;;19.15;46.56
48200;BME280;33990;44.602;10.976;2023-03-16T13:56:26;101526.47;;;19.17;47.21
48200;BME280;33990;44.602;10.976;2023-03-16T13:58:56;101529.03;;;19.19;47.85
48200;BME280;33990;44.602;10.976;2023-03-16T14:01:27;101532.47;;;19.21;48.50
48200;BME280;33990;44.602;10.976;2023-03-16T14:03:59;101517.22;;;19.21;48.41
48200;BME280;33990;44.602;10.976;2023-03-16T14:06:31;101523.44;;;19.22;48.46
48200;BME280;33990;44.602;10.976;2023-03-16T14:09:04;101519.78;;;19.23;48.65
48200;BME280;33990;44.602;10.976;2023-03-16T14:11:32;101517.94;;;19.23;48.55
48200;BME280;33990;44.602;10.976;2023-03-16T14:14:00;101525.03;;;19.24;48.49
48200;BME280;33990;44.602;10.976;2023-03-16T14:16:28;101519.69;;;19.24;48.53
48200;BME280;33990;44.602;10.976;2023-03-16T14:19:05;101517.84;;;19.25;48.95
48200;BME280;33990;44.602;10.976;2023-03-16T14:21:34;101520.53;;;19.25;48.92
48200;BME280;33990;44.602;10.976;2023-03-16T14:24:04;101524.91;;;19.26;48.87
48200;BME280;33990;44.602;10.976;2023-03-16T14:26:40;101528.47;;;19.26;48.61